Time;durP1;ratioP1;P1;durP2;ratioP2;P2;SDS_P1;SDS_P2;PMS_P1;PMS_P2;Temp;Humidity;BMP_temperature;BMP_pressure;BME280_temperature;BME280_humidity;BME280_pressure;Samples;Min_cycle;Max_cycle;Signal;HPM_P1;HPM_P2
2023/01/17 00:02:19;;;;;;;7.13;5.13;;;3.70;99.90;;;-144.05;80.32;125687.94;5072236;28;20488;-84
2023/01/17 00:10:25;;;;;;;8.77;6.65;;;3.70;99.90;;;-144.05;80.90;125687.94;5072306;28;20419;-82
2023/01/17 00:12:58;;;;;;;9.45;7.13;;;3.70;99.90;;;-144.05;81.60;125687.94;5071279;28;20037;-82
2023/01/17 00:15:29;;;;;;;8.95;6.80;;;3.70;99.90;;;-144.05;82.11;125687.94;5054000;28;20028;-82
2023/01/17 00:17:57;;;;;;;9.40;6.95;;;3.70;99.90;;;-144.05;82.28;125687.94;5071766;28;20020;-81
2023/01/17 00:26:18;;;;;;;10.00;7.20;;;3.80;99.90;;;-144.05;82.25;125687.94;5071893;28;20450;-82
2023/01/17 01:35:53;;;;;;;5.53;4.18;;;3.60;99.90;;;-144.05;80.40;125687.94;5075144;28;20032;-83
2023/01/17 01:38:23;;;;;;;6.53;4.30;;;3.60;99.90;;;-144.05;80.64;125687.94;5057216;28;20438;-82
2023/01/17 01:40:55;;;;;;;5.72;4.43;;;3.50;99.90;;;-144.05;80.97;125687.94;5073791;28;20534;-82
2023/01/17 01:43:44;;;;;;;6.20;4.57;;;3.50;99.90;;;-144.05;80.05;125687.94;5057035;28;20575;-81
2023/01/17 01:46:37;;;;;;;5.95;4.20;;;3.60;99.90;;;-144.05;80.01;125687.94;5056777;28;20483;-82
2023/01/17 01:49:27;;;;;;;7.18;4.70;;;3.60;99.90;;;-144.05;79.76;125687.94;5073094;28;20036;-84
2023/01/17 01:52:01;;;;;;;6.72;4.13;;;3.60;99.90;;;-144.05;80.05;125687.94;5072872;28;20029;-84
2023/01/17 01:55:06;;;;;;;6.35;3.70;;;3.50;99.90;;;-144.05;79.68;125687.94;5056201;28;20060;-83
2023/01/17 01:57:42;;;;;;;3.97;3.15;;;3.50;99.90;;;-144.05;79.63;125687.94;5056168;28;20037;-80
2023/01/17 02:00:28;;;;;;;4.47;3.08;;;3.50;99.90;;;-144.05;79.17;125687.94;5055995;28;20070;-84
2023/01/17 02:03:04;;;;;;;4.07;3.15;;;3.50;99.90;;;-144.05;79.26;125687.94;5056206;28;20119;-81
2023/01/17 02:05:34;;;;;;;7.78;3.88;;;3.50;99.90;;;-144.05;78.91;125687.94;5074285;28;20040;-84
2023/01/17 02:08:21;;;;;;;4.30;2.63;;;3.60;99.90;;;-144.05;79.12;125687.94;5056237;28;20061;-86
2023/01/17 02:10:48;;;;;;;4.22;2.88;;;3.50;99.90;;;-144.05;79.09;125687.94;5073308;28;20024;-85
2023/01/17 02:13:19;;;;;;;7.70;2.90;;;3.50;99.90;;;-144.05;79.07;125687.94;5074454;28;20033;-84
2023/01/17 02:16:21;;;;;;;5.38;2.97;;;3.50;99.90;;;-144.05;78.95;125687.94;5073119;28;20052;-80
2023/01/17 02:19:29;;;;;;;4.82;2.90;;;3.50;99.90;;;-144.05;78.95;125687.94;5057168;28;20025;-82
2023/01/17 02:22:26;;;;;;;8.57;3.97;;;3.40;99.90;;;-144.05;79.81;125687.94;5076734;28;20028;-82
2023/01/17 02:25:27;;;;;;;8.10;5.10;;;3.40;99.90;;;-144.05;79.76;125687.94;5060787;28;20128;-81
2023/01/17 02:28:42;;;;;;;6.10;3.75;;;3.40;99.90;;;-144.05;79.58;125687.94;5076691;28;20104;-81
2023/01/17 02:31:30;;;;;;;3.55;2.60;;;3.10;99.90;;;-144.05;79.95;125687.94;5072404;28;20024;-82
2023/01/17 02:34:49;;;;;;;4.22;2.58;;;2.80;99.90;;;-144.05;80.49;125687.94;5074345;28;20032;-83
2023/01/17 02:38:08;;;;;;;6.70;2.60;;;2.60;99.90;;;-144.05;79.66;125687.94;5053497;28;20106;-84
2023/01/17 02:40:57;;;;;;;5.40;2.55;;;2.40;99.90;;;-144.05;80.35;125687.94;5072498;28;20035;-85
2023/01/17 02:43:25;;;;;;;4.63;2.40;;;2.30;99.90;;;-144.05;81.19;125687.94;5055438;28;20120;-81
2023/01/17 02:45:51;;;;;;;2.83;1.95;;;2.20;99.90;;;-144.05;81.50;125687.94;5073350;28;20027;-82
2023/01/17 02:48:25;;;;;;;4.78;2.88;;;2.10;99.90;;;-144.05;81.24;125687.94;5054787;28;20028;-83
2023/01/17 02:51:32;;;;;;;3.55;2.20;;;2.00;99.90;;;-144.05;81.35;125687.94;5054857;28;20060;-83
2023/01/17 02:54:54;;;;;;;3.55;2.38;;;2.00;99.90;;;-144.05;81.59;125687.94;5055170;28;20036;-83
2023/01/17 02:57:55;;;;;;;4.47;3.35;;;2.00;99.90;;;-144.05;81.84;125687.94;5072859;28;20073;-82
2023/01/17 03:01:01;;;;;;;4.10;3.15;;;2.10;99.90;;;-144.05;82.07;125687.94;5072724;28;20024;-84
2023/01/17 03:04:01;;;;;;;3.75;2.42;;;2.00;99.90;;;-144.05;82.24;125687.94;5071279;28;20086;-82
2023/01/17 03:06:46;;;;;;;2.72;1.98;;;2.20;99.90;;;-144.05;81.91;125687.94;5055266;28;20056;-85
2023/01/17 03:09:16;;;;;;;2.17;1.63;;;2.10;99.90;;;-144.05;81.96;125687.94;5075436;28;20051;-78
2023/01/17 03:11:43;;;;;;;3.60;1.90;;;2.00;99.90;;;-144.05;81.86;125687.94;5088054;28;20059;-82
2023/01/17 03:14:09;;;;;;;2.47;1.90;;;1.80;99.90;;;-144.05;81.94;125687.94;5071728;28;20480;-84
2023/01/17 03:16:35;;;;;;;1.88;1.42;;;1.70;99.90;;;-144.05;81.62;125687.94;5071886;28;20032;-82
2023/01/17 03:19:02;;;;;;;2.22;1.23;;;1.50;99.90;;;-144.05;81.89;125687.94;5054383;28;20032;-82
2023/01/17 03:21:28;;;;;;;1.42;1.25;;;1.40;99.90;;;-144.05;81.89;125687.94;5072508;28;20411;-82
2023/01/17 03:23:54;;;;;;;0.82;0.82;;;1.30;99.90;;;-144.05;82.06;125687.94;5054708;28;20032;-82
2023/01/17 03:26:20;;;;;;;0.88;0.88;;;1.20;99.90;;;-144.05;81.79;125687.94;5070839;28;20093;-82
2023/01/17 03:28:46;;;;;;;0.85;0.80;;;1.20;99.90;;;-144.05;81.67;125687.94;5070830;28;20028;-82
2023/01/17 03:31:18;;;;;;;0.98;0.90;;;1.10;99.90;;;-144.05;82.03;125687.94;5054214;28;20232;-83
2023/01/17 03:33:45;;;;;;;1.25;0.65;;;1.10;99.90;;;-144.05;82.07;125687.94;5070876;28;20043;-84
2023/01/17 03:36:11;;;;;;;0.70;0.60;;;1.10;99.90;;;-144.05;82.22;125687.94;5053909;28;20051;-78
2023/01/17 03:38:37;;;;;;;1.42;0.75;;;1.10;99.90;;;-144.05;82.46;125687.94;5070712;28;20037;-82
2023/01/17 03:41:04;;;;;;;1.80;1.23;;;1.10;99.90;;;-144.05;83.06;125687.94;5072176;28;20492;-82
2023/01/17 03:43:30;;;;;;;3.08;1.70;;;1.10;99.90;;;-144.05;82.83;125687.94;5054588;28;20032;-82
2023/01/17 03:46:07;;;;;;;4.07;1.90;;;1.00;99.90;;;-144.05;83.21;125687.94;5054424;28;20043;-82
2023/01/17 03:48:33;;;;;;;2.60;2.08;;;1.00;99.90;;;-144.05;83.16;125687.94;5054397;28;20114;-83
2023/01/17 03:50:59;;;;;;;4.13;2.55;;;0.90;99.90;;;-144.05;82.42;125687.94;5054258;28;20195;-81
2023/01/17 03:53:25;;;;;;;5.18;3.08;;;0.90;99.90;;;-144.05;83.18;125687.94;5054196;28;20028;-82
2023/01/17 03:55:51;;;;;;;4.72;3.58;;;0.90;99.90;;;-144.05;82.76;125687.94;5071223;28;20024;-80
2023/01/17 03:58:17;;;;;;;5.65;3.22;;;1.00;99.90;;;-144.05;83.08;125687.94;5070784;28;20035;-82
2023/01/17 04:00:42;;;;;;;5.07;3.22;;;0.90;99.90;;;-144.05;83.02;125687.94;5050680;23;20041;-83
2023/01/17 04:03:09;;;;;;;5.18;3.95;;;1.00;99.90;;;-144.05;83.76;125687.94;5034265;28;20124;-84
2023/01/17 04:05:34;;;;;;;7.13;4.10;;;1.00;99.90;;;-144.05;84.01;125687.94;5044830;28;20077;-83
2023/01/17 04:08:00;;;;;;;6.40;4.95;;;1.00;99.90;;;-144.05;83.77;125687.94;5037215;28;20037;-84
2023/01/17 04:10:26;;;;;;;7.78;5.32;;;1.00;99.90;;;-144.05;84.36;125687.94;5037508;28;20037;-85
2023/01/17 04:12:52;;;;;;;9.05;5.28;;;1.10;99.90;;;-144.05;83.85;125687.94;5043011;28;20060;-84
2023/01/17 04:15:18;;;;;;;7.60;5.10;;;1.10;99.90;;;-144.05;83.50;125687.94;5042389;28;20029;-81
2023/01/17 04:17:44;;;;;;;9.32;5.53;;;1.10;99.90;;;-144.05;83.55;125687.94;5022986;28;20117;-81
2023/01/17 04:20:34;;;;;;;11.25;6.00;;;1.10;99.90;;;-144.05;82.99;125687.94;5036816;28;20053;-81
2023/01/17 04:23:00;;;;;;;9.18;5.55;;;1.10;99.90;;;-144.05;83.22;125687.94;5038579;28;20484;-82
2023/01/17 04:25:28;;;;;;;11.73;5.63;;;1.20;99.90;;;-144.05;83.91;125687.94;5022007;28;20041;-81
2023/01/17 04:27:55;;;;;;;10.45;5.60;;;1.20;99.90;;;-144.05;83.90;125687.94;5021165;28;20057;-82
2023/01/17 04:30:21;;;;;;;8.70;5.10;;;1.20;99.90;;;-144.05;84.01;125687.94;5036056;28;20476;-80
2023/01/17 04:32:47;;;;;;;9.40;5.72;;;1.20;99.90;;;-144.05;84.19;125687.94;5038775;28;20159;-82
2023/01/17 04:35:12;;;;;;;7.97;4.63;;;1.30;99.90;;;-144.05;83.79;125687.94;5021433;28;20040;-82
2023/01/17 04:37:38;;;;;;;9.18;4.75;;;1.30;99.90;;;-144.05;83.14;125687.94;5041262;28;20140;-80
2023/01/17 04:40:06;;;;;;;10.40;4.78;;;1.30;99.90;;;-144.05;82.97;125687.94;5023744;28;20036;-81
2023/01/17 04:42:31;;;;;;;8.98;4.60;;;1.30;99.90;;;-144.05;83.16;125687.94;5042958;28;20133;-82
2023/01/17 04:44:57;;;;;;;6.20;3.95;;;1.40;99.90;;;-144.05;83.50;125687.94;5044189;28;20057;-82
2023/01/17 04:47:23;;;;;;;6.78;3.75;;;1.40;99.90;;;-144.05;83.07;125687.94;5044838;28;20034;-80
2023/01/17 04:49:49;;;;;;;8.50;3.50;;;1.40;99.90;;;-144.05;82.88;125687.94;5043449;28;20030;-79
2023/01/17 04:52:17;;;;;;;7.38;3.72;;;1.40;99.90;;;-144.05;82.78;125687.94;5028640;28;20083;-78
2023/01/17 04:54:44;;;;;;;6.80;3.78;;;1.40;99.90;;;-144.05;82.96;125687.94;5046682;28;20034;-83
2023/01/17 04:57:10;;;;;;;10.65;4.82;;;1.40;99.90;;;-144.05;83.46;125687.94;5046810;28;20025;-80
2023/01/17 04:59:35;;;;;;;7.13;4.00;;;1.50;99.90;;;-144.05;83.09;125687.94;5051195;28;20159;-83
2023/01/17 05:02:01;;;;;;;10.85;4.60;;;1.50;99.90;;;-144.05;82.67;125687.94;5051656;28;20029;-80
2023/01/17 05:04:27;;;;;;;8.80;4.70;;;1.50;99.90;;;-144.05;82.79;125687.94;5051440;28;20037;-82
2023/01/17 05:06:53;;;;;;;6.70;4.72;;;1.50;99.90;;;-144.05;82.79;125687.94;5051795;28;20037;-80
2023/01/17 05:09:19;;;;;;;10.25;4.32;;;1.60;99.90;;;-144.05;83.08;125687.94;5048845;28;20029;-80
2023/01/17 05:11:45;;;;;;;7.95;4.30;;;1.60;99.90;;;-144.05;82.63;125687.94;5049033;28;20051;-81
2023/01/17 05:14:11;;;;;;;13.88;5.30;;;1.60;99.90;;;-144.05;82.47;125687.94;5032122;28;20044;-83
2023/01/17 05:16:37;;;;;;;7.28;4.55;;;1.60;99.90;;;-144.05;82.16;125687.94;5050381;28;20029;-84
2023/01/17 05:19:03;;;;;;;9.90;4.65;;;1.60;99.90;;;-144.05;82.24;125687.94;5047888;28;20029;-83
2023/01/17 05:21:30;;;;;;;10.63;5.20;;;1.60;99.90;;;-144.05;82.71;125687.94;5030284;28;20044;-83
2023/01/17 05:23:56;;;;;;;10.60;5.25;;;1.60;99.90;;;-144.05;82.24;125687.94;5043731;28;20092;-83
2023/01/17 05:26:22;;;;;;;5.97;4.63;;;1.60;99.90;;;-144.05;82.39;125687.94;5045202;28;20033;-83
2023/01/17 05:28:48;;;;;;;10.30;5.20;;;1.60;99.90;;;-144.05;82.03;125687.94;5039659;28;20413;-80
2023/01/17 05:31:14;;;;;;;7.57;5.50;;;1.60;99.90;;;-144.05;82.41;125687.94;5038756;28;20041;-83
2023/01/17 05:33:40;;;;;;;10.15;6.28;;;1.60;99.90;;;-144.05;82.17;125687.94;5042122;28;20060;-84
2023/01/17 05:36:07;;;;;;;12.60;7.50;;;1.60;99.90;;;-144.05;82.51;125687.94;5042264;28;20025;-84
2023/01/17 05:38:33;;;;;;;12.88;8.18;;;1.50;99.90;;;-144.05;83.21;125687.94;5050039;28;20049;-85
2023/01/17 05:41:01;;;;;;;15.85;8.77;;;1.60;99.90;;;-144.05;82.59;125687.94;5041052;28;20065;-83
2023/01/17 05:43:27;;;;;;;15.88;9.45;;;1.60;99.90;;;-144.05;82.87;125687.94;5021902;28;20040;-83
2023/01/17 05:45:54;;;;;;;18.15;8.75;;;1.60;99.90;;;-144.05;83.02;125687.94;5039449;28;20073;-82
2023/01/17 05:48:20;;;;;;;21.05;9.65;;;1.50;99.90;;;-144.05;82.59;125687.94;5021496;28;20029;-82
2023/01/17 05:50:46;;;;;;;16.65;9.05;;;1.50;99.90;;;-144.05;82.26;125687.94;5022124;28;20030;-83
2023/01/17 05:53:15;;;;;;;19.13;9.38;;;1.50;99.90;;;-144.05;82.34;125687.94;5043424;28;20090;-82
2023/01/17 05:55:42;;;;;;;18.77;8.77;;;1.50;99.90;;;-144.05;82.37;125687.94;5027208;28;20025;-84
2023/01/17 05:58:19;;;;;;;14.73;9.20;;;1.50;99.90;;;-144.05;82.88;125687.94;5040879;28;20036;-84
2023/01/17 06:00:46;;;;;;;17.65;9.13;;;1.50;99.90;;;-144.05;83.25;125687.94;5023723;28;20041;-82
2023/01/17 06:03:14;;;;;;;17.75;8.88;;;1.50;99.90;;;-144.05;83.24;125687.94;5042244;28;20556;-83
2023/01/17 06:05:41;;;;;;;11.98;7.45;;;1.50;99.90;;;-144.05;82.48;125687.94;5041391;28;20033;-82
2023/01/17 06:08:07;;;;;;;13.57;8.15;;;1.50;99.90;;;-144.05;82.37;125687.94;5040351;28;20143;-82
2023/01/17 06:10:33;;;;;;;18.17;8.10;;;1.50;99.90;;;-144.05;82.52;125687.94;5038353;28;20052;-84
2023/01/17 06:13:08;;;;;;;18.35;8.60;;;1.50;99.90;;;-144.05;81.95;125687.94;5021652;28;20029;-85
2023/01/17 06:15:36;;;;;;;14.33;7.57;;;1.50;99.90;;;-144.05;81.87;125687.94;5022456;28;20485;-85
2023/01/17 06:18:13;;;;;;;17.08;8.30;;;1.50;99.90;;;-144.05;82.20;125687.94;5038106;28;20105;-85
2023/01/17 06:20:39;;;;;;;16.02;7.70;;;1.50;99.90;;;-144.05;81.84;125687.94;5020860;28;20025;-84
2023/01/17 06:23:12;;;;;;;15.02;8.13;;;1.50;99.90;;;-144.05;81.65;125687.94;5020058;28;20029;-84
2023/01/17 06:25:45;;;;;;;21.33;8.13;;;1.40;99.90;;;-144.05;81.84;125687.94;5020318;28;20036;-85
2023/01/17 06:28:21;;;;;;;13.77;7.75;;;1.50;99.90;;;-144.05;81.72;125687.94;5020267;28;20154;-82
2023/01/17 06:30:48;;;;;;;15.45;7.82;;;1.50;99.90;;;-144.05;81.28;125687.94;5027485;28;20045;-84
2023/01/17 06:33:15;;;;;;;12.82;7.97;;;1.50;99.90;;;-144.05;81.60;125687.94;5034754;28;20017;-85
2023/01/17 06:35:50;;;;;;;19.67;8.93;;;1.40;99.90;;;-144.05;81.32;125687.94;5022798;28;20036;-83
2023/01/17 06:38:17;;;;;;;;;;;1.50;99.90;;;-144.05;81.24;125687.94;5022648;28;20032;-85
2023/01/17 06:40:43;;;;;;;15.23;6.80;;;1.40;99.90;;;-144.05;81.10;125687.94;5022137;28;19912;-86
2023/01/17 06:43:09;;;;;;;14.32;7.47;;;1.50;99.90;;;-144.05;80.98;125687.94;5022631;28;20033;-83
2023/01/17 06:45:35;;;;;;;15.15;7.55;;;1.50;99.90;;;-144.05;80.74;125687.94;5021554;28;20033;-84
2023/01/17 06:48:04;;;;;;;23.30;8.13;;;1.40;99.90;;;-144.05;80.77;125687.94;5023445;28;20029;-84
2023/01/17 06:50:31;;;;;;;15.52;6.72;;;1.40;99.90;;;-144.05;80.33;125687.94;5040594;28;20030;-83
2023/01/17 06:53:06;;;;;;;14.73;7.32;;;1.50;99.90;;;-144.05;80.57;125687.94;5020515;28;20037;-83
2023/01/17 06:55:36;;;;;;;12.73;6.68;;;1.50;99.90;;;-144.05;79.99;125687.94;5023034;28;20040;-83
2023/01/17 06:58:02;;;;;;;15.75;7.30;;;1.50;99.90;;;-144.05;80.39;125687.94;5040543;28;20068;-82
2023/01/17 07:00:30;;;;;;;13.95;7.78;;;1.50;99.90;;;-144.05;80.69;125687.94;5041568;28;20052;-83
2023/01/17 07:02:56;;;;;;;21.85;8.15;;;1.50;99.90;;;-144.05;80.57;125687.94;5020783;28;20495;-83
2023/01/17 07:05:22;;;;;;;17.90;7.47;;;1.60;99.90;;;-144.05;80.12;125687.94;5020926;28;20025;-84
2023/01/17 07:07:48;;;;;;;13.88;7.75;;;1.60;99.90;;;-144.05;80.15;125687.94;5037810;28;20415;-83
2023/01/17 07:10:15;;;;;;;14.68;8.15;;;1.60;99.90;;;-144.05;80.35;125687.94;5019617;28;20033;-82
2023/01/17 07:12:43;;;;;;;15.00;8.07;;;1.50;99.90;;;-144.05;80.38;125687.94;5019223;28;20033;-83
2023/01/17 07:15:11;;;;;;;21.05;10.32;;;1.50;99.90;;;-144.05;80.88;125687.94;5020729;28;20121;-83
2023/01/17 07:17:37;;;;;;;22.15;10.18;;;1.50;99.90;;;-144.05;80.49;125687.94;5037811;28;20026;-84
2023/01/17 07:20:04;;;;;;;19.23;9.55;;;1.50;99.90;;;-144.05;80.53;125687.94;5019523;28;20029;-82
2023/01/17 07:22:31;;;;;;;18.02;9.40;;;1.50;99.90;;;-144.05;80.79;125687.94;5036011;28;20083;-82
2023/01/17 07:24:57;;;;;;;18.02;9.07;;;1.50;99.90;;;-144.05;80.75;125687.94;5018752;28;20445;-83
2023/01/17 07:27:29;;;;;;;18.33;9.60;;;1.50;99.90;;;-144.05;80.35;125687.94;5019186;28;20068;-82
2023/01/17 07:29:56;;;;;;;18.67;10.13;;;1.50;99.90;;;-144.05;80.21;125687.94;5018871;28;20048;-82
2023/01/17 07:32:25;;;;;;;18.48;9.27;;;1.50;99.90;;;-144.05;80.04;125687.94;5036511;28;20034;-82
2023/01/17 07:34:51;;;;;;;20.65;10.13;;;1.50;99.90;;;-144.05;80.19;125687.94;5019689;28;20243;-83
2023/01/17 07:37:18;;;;;;;20.77;9.75;;;1.50;99.90;;;-144.05;80.34;125687.94;5019223;28;20065;-83
2023/01/17 07:39:45;;;;;;;21.55;10.15;;;1.50;99.90;;;-144.05;80.43;125687.94;5036356;28;20025;-84
2023/01/17 07:42:10;;;;;;;21.45;10.35;;;1.50;99.90;;;-144.05;80.33;125687.94;5018347;28;20043;-82
2023/01/17 07:44:38;;;;;;;20.55;10.70;;;1.50;99.90;;;-144.05;80.17;125687.94;5018905;28;20595;-84
2023/01/17 07:47:04;;;;;;;19.33;11.13;;;1.50;99.90;;;-144.05;80.46;125687.94;5036168;28;20062;-82
2023/01/17 07:49:30;;;;;;;22.45;11.40;;;1.60;99.90;;;-144.05;80.72;125687.94;5036110;28;20029;-80
2023/01/17 07:51:56;;;;;;;23.92;12.20;;;1.50;99.90;;;-144.05;80.28;125687.94;5035800;28;20506;-83
2023/01/17 07:54:21;;;;;;;20.73;12.00;;;1.60;99.90;;;-144.05;80.15;125687.94;5036693;28;20029;-82
2023/01/17 07:56:47;;;;;;;22.60;11.85;;;1.60;99.90;;;-144.05;80.00;125687.94;5036111;28;20527;-83
2023/01/17 07:59:13;;;;;;;21.10;12.23;;;1.60;99.90;;;-144.05;79.94;125687.94;5018889;28;20038;-83
2023/01/17 08:01:39;;;;;;;21.10;10.77;;;1.60;99.90;;;-144.05;79.61;125687.94;5020136;28;20040;-85
2023/01/17 08:04:05;;;;;;;23.23;11.57;;;1.60;99.90;;;-144.05;79.67;125687.94;5020930;28;20037;-83
2023/01/17 08:06:31;;;;;;;19.83;10.90;;;1.60;99.90;;;-144.05;79.18;125687.94;5020151;28;20036;-85
2023/01/17 08:08:58;;;;;;;21.48;11.43;;;1.60;99.90;;;-144.05;79.06;125687.94;5019994;28;20404;-84
2023/01/17 08:11:24;;;;;;;20.75;10.63;;;1.60;99.90;;;-144.05;79.10;125687.94;5019677;28;20037;-84
2023/01/17 08:13:56;;;;;;;20.30;11.40;;;1.60;99.90;;;-144.05;79.18;125687.94;5018551;28;20378;-83
2023/01/17 08:16:27;;;;;;;22.92;11.90;;;1.70;99.90;;;-144.05;78.87;125687.94;5018581;28;20488;-84
2023/01/17 08:18:55;;;;;;;21.55;11.20;;;1.70;99.90;;;-144.05;78.78;125687.94;5035969;28;20449;-85
2023/01/17 08:21:22;;;;;;;23.98;12.30;;;1.70;99.90;;;-144.05;78.73;125687.94;5046106;28;20033;-80
2023/01/17 08:23:51;;;;;;;20.95;10.80;;;1.60;99.90;;;-144.05;77.90;125687.94;5019928;28;20033;-81
2023/01/17 08:26:21;;;;;;;26.05;10.43;;;1.70;99.90;;;-144.05;77.75;125687.94;5036346;28;20503;-83
2023/01/17 08:28:59;;;;;;;16.63;9.65;;;1.70;99.90;;;-144.05;77.66;125687.94;5018510;28;20037;-81
2023/01/17 08:31:32;;;;;;;20.95;10.63;;;1.60;99.90;;;-144.05;77.31;125687.94;5035138;28;20144;-84
2023/01/17 08:33:58;;;;;;;21.90;10.45;;;1.60;99.90;;;-144.05;77.34;125687.94;5020638;28;20191;-83
2023/01/17 08:36:26;;;;;;;18.40;10.82;;;1.70;99.90;;;-144.05;76.88;125687.94;5021968;28;20552;-82
2023/01/17 08:38:54;;;;;;;24.05;11.13;;;1.70;99.90;;;-144.05;76.64;125687.94;5021608;28;20040;-80
2023/01/17 08:41:22;;;;;;;18.95;9.93;;;1.70;99.90;;;-144.05;76.20;125687.94;5022562;28;20052;-82
2023/01/17 08:43:50;;;;;;;23.17;10.55;;;1.60;99.90;;;-144.05;76.20;125687.94;5040171;28;20047;-83
2023/01/17 08:46:17;;;;;;;21.00;10.65;;;1.60;99.90;;;-144.05;75.96;125687.94;5022066;28;20036;-83
2023/01/17 08:48:44;;;;;;;20.13;11.38;;;1.60;99.90;;;-144.05;76.27;125687.94;5039655;28;20064;-82
2023/01/17 08:51:10;;;;;;;20.85;11.02;;;1.60;99.90;;;-144.05;75.90;125687.94;5039178;28;20071;-82
2023/01/17 08:53:37;;;;;;;19.35;11.23;;;1.60;99.90;;;-144.05;75.62;125687.94;5022961;28;20036;-82
2023/01/17 08:56:04;;;;;;;20.45;11.02;;;1.70;99.90;;;-144.05;75.69;125687.94;5040839;28;20026;-80
2023/01/17 08:58:31;;;;;;;24.50;11.98;;;1.70;99.90;;;-144.05;75.86;125687.94;5058433;28;20024;-80
2023/01/17 09:01:04;;;;;;;19.90;10.93;;;1.70;99.90;;;-144.05;75.06;125687.94;5038020;28;20044;-82
2023/01/17 09:03:32;;;;;;;21.40;11.18;;;1.70;99.90;;;-144.05;75.35;125687.94;5040295;28;20038;-82
2023/01/17 09:06:08;;;;;;;24.33;11.85;;;1.70;99.90;;;-144.05;75.52;125687.94;5021706;28;20030;-83
2023/01/17 09:08:34;;;;;;;;;;;1.70;99.90;;;-144.05;75.05;125687.94;5039721;28;20029;-82
2023/01/17 09:11:10;;;;;;;;;;;1.80;99.90;;;-144.05;75.22;125687.94;5022218;28;19913;-80
2023/01/17 09:13:39;;;;;;;25.17;11.75;;;1.80;99.90;;;-144.05;75.12;125687.94;5039671;28;20273;-83
2023/01/17 09:16:06;;;;;;;26.15;10.93;;;1.80;99.90;;;-144.05;74.81;125687.94;5022804;28;20033;-81
2023/01/17 09:18:34;;;;;;;20.15;11.32;;;1.80;99.90;;;-144.05;75.13;125687.94;5040418;28;20025;-83
2023/01/17 09:21:14;;;;;;;20.85;10.90;;;1.90;99.90;;;-144.05;74.88;125687.94;5040905;28;20096;-80
2023/01/17 09:23:41;;;;;;;25.80;11.88;;;1.90;99.90;;;-144.05;74.54;125687.94;5040343;28;20033;-83
2023/01/17 09:26:24;;;;;;;21.52;12.65;;;2.00;99.90;;;-144.05;74.13;125687.94;5043523;28;20029;-83
2023/01/17 09:28:51;;;;;;;23.45;11.77;;;2.10;99.90;;;-144.05;74.36;125687.94;5040665;28;20033;-82
2023/01/17 09:31:20;;;;;;;20.85;12.07;;;2.10;99.90;;;-144.05;73.84;125687.94;5022191;28;20033;-83
2023/01/17 09:33:49;;;;;;;20.08;11.40;;;2.10;99.90;;;-144.05;74.45;125687.94;5040180;28;20029;-82
2023/01/17 09:36:16;;;;;;;23.48;12.70;;;2.10;99.90;;;-144.05;74.31;125687.94;5039663;28;20025;-83
2023/01/17 09:38:42;;;;;;;23.42;13.63;;;2.20;99.90;;;-144.05;74.11;125687.94;5021441;28;20025;-80
2023/01/17 09:41:48;;;;;;;21.80;12.63;;;2.20;99.90;;;-144.05;74.56;125687.94;5040012;28;20100;-81
2023/01/17 09:44:44;;;;;;;22.30;13.40;;;2.20;99.90;;;-144.05;74.35;125687.94;5038575;28;20060;-82
2023/01/17 09:47:29;;;;;;;21.85;12.38;;;2.20;99.90;;;-144.05;74.88;125687.94;5021786;28;20120;-81
2023/01/17 09:50:15;;;;;;;25.27;13.10;;;2.10;99.90;;;-144.05;75.09;125687.94;5021854;28;20030;-81
2023/01/17 09:52:41;;;;;;;25.50;12.75;;;2.10;99.90;;;-144.05;74.77;125687.94;5022164;28;20056;-83
2023/01/17 09:55:14;;;;;;;23.05;12.32;;;2.10;99.90;;;-144.05;74.90;125687.94;5041219;28;20033;-83
2023/01/17 09:58:16;;;;;;;21.35;12.65;;;2.10;99.90;;;-144.05;74.74;125687.94;5040503;28;20044;-81
2023/01/17 10:01:23;;;;;;;21.98;12.55;;;2.10;99.90;;;-144.05;74.69;125687.94;5022359;28;20049;-83
2023/01/17 10:04:35;;;;;;;20.55;11.48;;;2.20;99.90;;;-144.05;74.22;125687.94;5023449;28;20038;-83
2023/01/17 10:07:52;;;;;;;29.15;10.73;;;2.10;99.90;;;-144.05;74.05;125687.94;5022524;28;20128;-83
2023/01/17 10:10:52;;;;;;;18.10;9.65;;;2.30;99.90;;;-144.05;72.94;125687.94;5021202;28;20030;-79
2023/01/17 10:13:38;;;;;;;18.20;9.45;;;2.30;99.90;;;-144.05;71.96;125687.94;5020739;28;20029;-80
2023/01/17 10:16:53;;;;;;;15.43;8.77;;;2.30;99.90;;;-144.05;71.47;125687.94;5038255;28;20086;-80
2023/01/17 10:19:56;;;;;;;19.98;9.77;;;2.30;99.90;;;-144.05;71.15;125687.94;5038377;28;20568;-80
2023/01/17 10:23:13;;;;;;;24.77;9.35;;;2.30;99.90;;;-144.05;71.32;125687.94;5038712;28;20026;-79
2023/01/17 10:25:54;;;;;;;23.17;8.43;;;2.30;99.90;;;-144.05;70.89;125687.94;5021230;28;20025;-80
2023/01/17 10:28:46;;;;;;;18.23;8.45;;;2.30;99.90;;;-144.05;70.80;125687.94;5020672;28;20040;-81
2023/01/17 10:31:28;;;;;;;20.42;10.02;;;2.50;99.90;;;-144.05;70.32;125687.94;5020503;28;20489;-82
2023/01/17 10:34:02;;;;;;;20.50;8.88;;;2.80;99.90;;;-144.05;69.51;125687.94;5021582;28;20033;-81
2023/01/17 10:36:46;;;;;;;18.02;9.30;;;3.10;99.90;;;-144.05;68.32;125687.94;5020692;28;20022;-79
2023/01/17 10:39:28;;;;;;;19.50;8.77;;;3.30;99.90;;;-144.05;67.84;125687.94;5020887;28;20021;-82
2023/01/17 10:42:13;;;;;;;18.25;8.77;;;3.50;99.90;;;-144.05;66.93;125687.94;5038959;28;20029;-81
2023/01/17 10:45:04;;;;;;;20.48;8.68;;;3.70;99.90;;;-144.05;67.03;125687.94;5039013;28;20030;-83
2023/01/17 10:47:36;;;;;;;21.55;9.43;;;3.70;99.90;;;-144.05;66.83;125687.94;5037599;28;20026;-82
2023/01/17 10:50:04;;;;;;;22.00;10.18;;;3.70;99.90;;;-144.05;67.10;125687.94;5038712;28;20112;-81
2023/01/17 10:53:04;;;;;;;16.73;9.73;;;3.60;99.90;;;-144.05;67.79;125687.94;5039455;28;20069;-80
2023/01/17 10:55:41;;;;;;;18.05;10.00;;;3.50;99.90;;;-144.05;67.85;125687.94;5020705;28;20385;-81
2023/01/17 10:58:12;;;;;;;21.65;10.15;;;3.40;99.90;;;-144.05;69.09;125687.94;5020658;28;20029;-81
2023/01/17 11:01:00;;;;;;;19.88;9.88;;;3.40;99.90;;;-144.05;68.29;125687.94;5023998;28;20072;-81
2023/01/17 11:03:27;;;;;;;17.33;8.98;;;3.80;99.90;;;-144.05;66.27;125687.94;5044382;28;20025;-80
2023/01/17 11:06:32;;;;;;;21.85;10.13;;;4.10;99.90;;;-144.05;66.17;125687.94;5046024;28;20107;-81
2023/01/17 11:09:10;;;;;;;16.90;8.52;;;4.00;99.90;;;-144.05;66.37;125687.94;5034379;28;20550;-79
2023/01/17 11:11:50;;;;;;;19.65;8.50;;;4.00;99.90;;;-144.05;66.39;125687.94;5020894;28;20519;-82
2023/01/17 11:14:24;;;;;;;15.27;8.43;;;4.20;99.90;;;-144.05;65.65;125687.94;5038294;28;20065;-80
2023/01/17 11:17:05;;;;;;;23.55;9.15;;;4.50;99.90;;;-144.05;64.48;125687.94;5038055;28;20026;-81
2023/01/17 11:19:35;;;;;;;18.98;8.07;;;4.80;99.90;;;-144.05;63.67;125687.94;5038393;28;20029;-81
2023/01/17 11:22:06;;;;;;;16.73;7.55;;;4.90;99.90;;;-144.05;63.67;125687.94;5037991;28;20035;-83
2023/01/17 11:24:51;;;;;;;16.67;8.10;;;5.00;99.90;;;-144.05;63.22;125687.94;5037438;28;20461;-83
2023/01/17 11:27:32;;;;;;;16.60;8.05;;;5.00;99.90;;;-144.05;63.21;125687.94;5020855;28;20032;-82
2023/01/17 11:30:17;;;;;;;15.98;6.97;;;5.00;99.90;;;-144.05;62.33;125687.94;5037446;28;20041;-81
2023/01/17 11:32:54;;;;;;;13.18;7.35;;;5.10;99.90;;;-144.05;61.74;125687.94;5037728;28;20029;-82
2023/01/17 11:35:25;;;;;;;14.85;7.45;;;5.30;99.90;;;-144.05;60.78;125687.94;5022029;28;20025;-82
2023/01/17 11:38:13;;;;;;;12.40;6.05;;;5.40;99.90;;;-144.05;60.18;125687.94;5021586;28;20029;-81
2023/01/17 11:40:48;;;;;;;12.73;6.10;;;5.60;99.90;;;-144.05;58.40;125687.94;5020897;28;20021;-81
2023/01/17 11:43:26;;;;;;;13.82;6.15;;;5.70;99.90;;;-144.05;60.80;125687.94;5018324;28;20029;-81
2023/01/17 11:46:19;;;;;;;12.80;6.68;;;5.60;99.90;;;-144.05;59.80;125687.94;5021284;28;20116;-81
2023/01/17 11:49:00;;;;;;;12.90;6.07;;;5.80;99.90;;;-144.05;59.92;125687.94;5040018;28;20032;-81